Location:  
MeteoStar


Sort by weather type Sort by elevation Sort by visibility Sort from west to east north Sort from north to south Alphabetically Sort from strongest wind speed Sort from lowest to highest pressure Sort from highest to lowest dew point temperature Sort coolest temperatures to warmest Sort warm temperatures to coolest
 Metric

Current Observations for United Kingdom sorted west->east

Castlederg02:00ZNot Avail.42 41301002.7SE 5 39167
Benbecula02:20ZCloudy41 3741005.1ESE 8 3619
South Uist Range02:00ZNot Avail.41 37161005.2ESE 10 3532
Tiree02:00ZNot Avail.41 38111004.7ESE 17 Gusting to 25 3339
Lough Fea02:00ZMist40 N/A0.871003.7SSE 4 738
Glenanne02:00ZNot Avail.41 3971003.0SSW 5 38528
Portglenone02:00ZNot Avail.43 4171003E 8 38209
Stornoway02:00ZNot Avail.35 33251006.7NNW 1 3529
Scilly; Saint MaryS02:00ZNot Avail.48 44301006.4W 14 42101
Belfast / Aldergrove Airport02:00ZMist42 4141003.5E 4 40265
Ballypatrick Forest02:00ZNot Avail.43 4191004SSE 6 39511
Belfast / Harbour02:20ZMostly Cloudy45 4341003.1SE 6 4216
Machrihanish02:00ZNot Avail.42 4141004.5SE 13 3542
Aultbea02:00ZNot Avail.36 29301006.5ESE 4 3336
Camborne02:00ZCloudy43 42151006.2S 5 40285
Culdrose02:00ZNot Avail.45 44151006.2SW 10 40255
Milford Haven02:00ZNot Avail.45 4471004.5S 7 41144
West Freugh02:00ZNot Avail.42 4081005.4ESE 16 3436
Aberdaron02:00ZNot Avail.43 4241005.4SSE 19 Gusting to 25 35311
Tulloch Bridge02:00ZNot Avail.35 30301008.2SSE 7 29777
Isle Of Man / Ronaldsway Airport02:00ZCloudy45 42151005SE 14 3955
Prestwick Rnas02:00ZNot Avail.39 34301006ESE 4 3685
Aberporth02:00ZLight Rain42 4261004.5SSE 13 35436
Valley02:00ZNot Avail.44 39301004.7SSE 14 373
Glasgow Airport02:20ZCloudy36 3441007.1ENE 8 3026
Altnaharra02:00ZNot Avail.20 17251008.0W 1 20265
Sule Skerry02:00ZNot Avail.41 33201007.5SE 19 3252
Glen Ogle02:00ZNot Avail.29 291.87E 9 211850
Chivenor02:00ZLight Rain43 41101006.2ENE 7 3926
Plymouth02:00ZLight Drizzle46 4571006.5WSW 8 42164
Inverness / Dalcross02:20ZNot Avail.23 2171007.1CALM2329
Dundrennan02:00ZHaze37 3561006.2E 9 30374
Mumbles02:00ZNot Avail.46 4471006.5SSE 12 40114
Tain Range02:00ZNot Avail.25 24201007.7W 2 2513
Trawscoed02:00ZLight Showers42 39251005.7SE 6 38206
Capel Curig02:00ZLight Showers41 36101006S 12 34708
Aviemore02:00ZNot Avail.24 23131008.5W 2 24721
Strathallan02:00ZClear33 331.871008.4ENE 1 33114
Drumalbin02:00ZNot Avail.35 33131007.0ESE 5 31803
Cairngorm02:00ZNot Avail.23 2313SW 10 134084
Sennybridge02:00ZClear38 3851006.5SSE 11 311007
Saint Bees Head02:00ZNot Avail.36 33151006.7SE 17 26406
Liscombe02:00ZNot Avail.40 400.51006.5S 5 361141
Kinloss02:00ZNot Avail.29 28161007.7ESE 6 2322
Rhyl02:00ZNot Avail.37 35101006.4SE 5 33252
Lake Vyrnwy02:00ZNot Avail.33 N/A11007.2ESE 6 1181
Exeter Airport02:20ZRain43 4361006.2SSE 4 4198
Cairnwell02:00ZNot Avail.29 N/A13S 6 3061
Cardiff-Wales Airport02:20ZLight Rain43 4341006.2ESE 9 38219
Edinburgh Airport02:20ZCloudy36 3241007.2ENE 2 36134
Lossiemouth02:00ZCloudy28 27131007.9SE 3 2842
Walney Island02:00ZNot Avail.38 35201007.2ESE 12 3049
Dunkeswell Aerodrome02:00ZNot Avail.42 41121007S 6 38826
Eskdalemuir02:00ZMist34 3261008.2N 2 34793
Keswick02:00ZNot Avail.37 33171007.7E 5 33265
Wick02:00ZNot Avail.40 35201008SSE 12 33127
Crosby02:00ZNot Avail.38 34201007SE 12 3026
Blackpool Airport02:00ZNot Avail.37 3416SE 14 2832
Hawarden02:00ZNot Avail.37 35131007.5SSE 12 2932
Carlisle02:00ZNot Avail.37 33201007.4N 3791
Kirkwall Airport02:00ZClear40 35191008.7SSE 12 3368
Shobdon02:00ZNot Avail.38 3771007.9E 6 33324
Leuchars02:00ZMist31 3021008NNW 4 2739
Liverpool Airport 02:20ZCloudy39 3441007.2SE 9 3385
Aboyne02:00ZFog32 321.871008.4E 2 32459
Bristol / Lulsgate 02:20ZCloudy41 4141006.5SE 11 34620
Shap02:00ZNot Avail.34 32101008.5S 4 30816
Shawbury02:00ZNot Avail.37 35171008.0ESE 1 37249
Yeovilton02:00ZShowers44 4251007.5SE 10 3975
Guernsey Airport02:00ZShowers nearby44 4291008.9S 14 37334
Spadeadam02:00ZNot Avail.33 3181008.2ESE 5 28935
Isle Of Portland02:00ZClear46 4461007.7S 19 Gusting to 26 39173
Great Dun Fell02:00ZNot Avail.28 2730SSW 17 162778
Warcop Range02:00ZNot Avail.35 32301008.2SSE 6 30744
Charterhall02:00ZNot Avail.34 3171008.2WNW 4 30367
Manchester Airport02:20ZCloudy37 3241008.3N 5 33226
Redesdale02:00ZNot Avail.33 3141008.7SE 6 27692
Inverbervie02:00ZClear38 3581008S 12 30439
Aberdeen / Dyce02:00ZLight Drizzle39 3671008.2S 8 33213
Jersey Airport02:00ZMist41 4061009.4SSE 12 34275
Pershore02:00ZLight Showers39 3681009SE 8 33104
Lyneham02:00ZNot Avail.39 37101008.7SSE 12 32475
Bingley02:00ZNot Avail.33 33201009SE 8 26859
Bournemouth Airport02:00ZRain42 401.121008.9SSE 12 3536
Larkhill02:00ZNot Avail.39 382.751009.2ESE 7 34433
Boscombe Down02:00ZRain39 3831009.4SE 11 32406
Birmingham / Airport02:20ZLight Rain36 3441008.3SSE 8 30324
Newcastle 02:50ZMostly Cloudy36 32151008.3S 7 30265
Little Rissington02:00ZNot Avail.37 34161009.0SSE 11 29705
Leeds And Bradford02:20ZLight Snow32 320.751008.7SSE 9 24682
Fair Isle02:00ZClear42 31201010.4SSE 13 35187
Boulmer02:00ZNot Avail.36 3371008.9S 8 3075
Brize Norton02:00ZCloudy39 35121009.5SSE 7 34288
Middle Wallop02:00ZNot Avail.39 382.251009.5SE 9 33298
Leeming02:00ZClear35 3471009.2SSE 10 27131
East Midlands02:20ZLight Rain36 34151009.3SSE 12 28308
Church Lawford02:00ZRain36 3441009.9SSE 5 32351
Sumburgh Cape 02:20ZPartly Cloudy41 30191010.1S 6 3716
Scatsa / Shetland Island02:20ZClear36 3241011.2SSE 12 2872
Saint Catherines Point02:00ZNot Avail.43 4261009.5SSE 12 3752
Linton-On-Ouse02:00ZNot Avail.36 3461009.9SSE 10 2952
Nottingham Weather Centre02:00ZRain35 332.251010.2SSE 7 29383
Lerwick02:00ZLight Showers39 342.251011.0SSE 8 33269
Benson02:00ZNot Avail.38 3581010.2SE 10 31206
Odiham02:00ZNot Avail.39 35101010.2SSE 12 32403
Thorney Island02:00ZLight Rain41 3881010.2SSE 15 3313
Loftus Samos02:00ZClear34 32121009.5S 20 Gusting to 27 23190
Baltasound02:00ZLight Showers36 33121011.9S 13 2749
High Wicombe Hqstc02:00ZLight Showers35 31121010.7SE 9 28669
Farnborough02:00ZNot Avail.39 34171010.5SE 8 33213
Fylingdales02:00ZNot Avail.32 3212SSE 12 23859
Waddington02:00ZNot Avail.35 31131011.0SSE 11 27223
London City Airport02:20ZClear37 3061012.1ESE 6 3216
Cranwell02:00ZNot Avail.34 31131011.0SSE 15 24219
Bedford02:00ZNot Avail.35 30301011.0SSE 13 26278
Wittering02:00ZNot Avail.35 30161010.7SSE 9 28275
London / Heathrow Airport02:00ZNot Avail.36 31161011.2ESE 9 2978
Northolt02:00ZNot Avail.35 30181011.4SE 7 29124
Luton Airport 02:20ZClear34 3041010.5SE 9 27524
Humberside02:20ZCloudy37 32161010.2S 18 27101
Shoreham Airport02:00ZNot Avail.42 3461011.5SSE 14 356
London / Gatwick Airport02:20ZNot Avail.37 3261011.3SE 7 32203
Coningsby Royal Air Force Base02:00ZCloudy36 32201011.4SSE 9 2922
Bridlington Mrsc02:00ZNot Avail.37 35121010.7S 18 Gusting to 27 2749
Kenley02:00ZNot Avail.35 29251011.7SSE 9 28557
Donna Nook02:00ZNot Avail.37 33131011.4SSE 14 2826
Holbeach02:00ZNot Avail.35 32111011.9S 10 279
Stansted Airport02:20ZClear34 30131011.4SE 10 26347
Wainfleet02:00ZNot Avail.37 34121011.9SSE 17 279
Herstmonceux02:00ZNot Avail.38 31131012.7S 7 33170
Marham02:00ZNot Avail.35 3271012.5SE 10 2775
Southend-On-Sea 02:50ZNot Avail.37 32161012.2SSE 12 2949
Shoeburyness02:00ZNot Avail.38 3381013.0S 14 306
Lydd Airport 02:20ZMostly Cloudy39 34161013.1S 15 319
Wattisham02:00ZNot Avail.35 3271013.2SSE 8 28285
Weybourne02:00ZNot Avail.35 3291013.0SSE 10 2768
Norwich Weather Centre02:20ZClear34 32131013.2SSE 7 2845
Manston02:00ZNot Avail.36 3281014SSE 13 27180
Langdon Bay02:00ZNot Avail.36 32251014S 14 Gusting to 27 27383